createdAt,value
2023-03-29T00:01:34.884Z,85.34
2023-03-29T00:04:06.466Z,85.03
2023-03-29T00:06:35.161Z,85.37
2023-03-29T00:09:06.055Z,86.73
2023-03-29T00:11:34.371Z,86.26
2023-03-29T00:14:02.659Z,87.22
2023-03-29T00:16:31.401Z,85.53
2023-03-29T00:18:59.936Z,85.60
2023-03-29T00:21:28.197Z,83.43
2023-03-29T00:23:57.917Z,82.91
2023-03-29T00:26:26.827Z,82.63
2023-03-29T00:28:56.106Z,82.73
2023-03-29T00:31:24.449Z,82.93
2023-03-29T00:33:53.241Z,83.13
2023-03-29T00:36:22.480Z,83.11
2023-03-29T00:38:50.864Z,82.45
2023-03-29T00:41:19.118Z,80.43
2023-03-29T00:44:02.613Z,79.29
2023-03-29T00:46:31.654Z,80.16
2023-03-29T00:49:09.823Z,79.45
2023-03-29T00:51:41.592Z,78.70
2023-03-29T00:54:15.175Z,78.06
2023-03-29T00:56:47.880Z,78.73
2023-03-29T00:59:21.772Z,78.75
2023-03-29T01:02:07.535Z,79.24
2023-03-29T01:04:48.225Z,79.41
2023-03-29T01:07:24.899Z,80.00
2023-03-29T01:10:01.747Z,80.13
2023-03-29T01:12:36.193Z,80.04
2023-03-29T01:15:19.609Z,80.54
2023-03-29T01:17:51.085Z,81.03
2023-03-29T01:20:31.082Z,81.09
2023-03-29T01:23:18.243Z,81.40
2023-03-29T01:26:25.161Z,82.26
2023-03-29T01:29:01.116Z,82.44
2023-03-29T01:31:36.595Z,80.86
2023-03-29T01:34:21.081Z,81.63
2023-03-29T01:37:04.738Z,81.38
2023-03-29T01:39:35.172Z,81.60
2023-03-29T01:42:14.800Z,81.57
2023-03-29T01:44:47.983Z,81.30
2023-03-29T01:47:22.554Z,81.94
2023-03-29T01:50:06.662Z,82.06
2023-03-29T01:52:51.141Z,81.65
2023-03-29T01:55:24.144Z,81.43
2023-03-29T01:57:54.240Z,82.60
2023-03-29T02:00:27.813Z,82.06
2023-03-29T02:03:03.446Z,81.88
2023-03-29T02:05:32.804Z,80.83
2023-03-29T02:08:05.427Z,80.19
2023-03-29T02:10:35.281Z,79.97
2023-03-29T02:13:06.127Z,80.79
2023-03-29T02:15:34.882Z,79.71
2023-03-29T02:18:06.904Z,79.71
2023-03-29T02:20:47.646Z,79.32
2023-03-29T02:23:24.253Z,79.08
2023-03-29T02:25:57.197Z,79.63
2023-03-29T02:28:28.340Z,78.32
2023-03-29T02:31:09.947Z,78.82
2023-03-29T02:33:43.579Z,80.22
2023-03-29T02:36:20.998Z,78.78
2023-03-29T02:38:49.340Z,79.96
2023-03-29T02:41:18.127Z,79.25
2023-03-29T02:43:48.575Z,78.57
2023-03-29T02:46:18.887Z,77.05
2023-03-29T02:48:52.055Z,76.93
2023-03-29T02:51:22.446Z,77.74
2023-03-29T02:54:05.634Z,78.53
2023-03-29T02:56:44.911Z,77.63
2023-03-29T02:59:14.491Z,78.07
2023-03-29T03:01:45.783Z,78.42
2023-03-29T03:04:15.725Z,76.86
2023-03-29T03:06:45.154Z,78.54
2023-03-29T03:09:14.023Z,79.42
2023-03-29T03:11:43.860Z,79.71
2023-03-29T03:14:12.645Z,78.83
2023-03-29T03:16:41.334Z,77.84
2023-03-29T03:19:10.625Z,76.84
2023-03-29T03:21:39.408Z,76.24
2023-03-29T03:24:07.991Z,75.65
2023-03-29T03:26:38.325Z,77.21
2023-03-29T03:29:06.881Z,79.82
2023-03-29T03:32:04.867Z,78.53
2023-03-29T03:34:52.403Z,79.43
2023-03-29T03:37:23.769Z,78.48
2023-03-29T03:39:52.118Z,77.98
2023-03-29T03:42:20.634Z,77.96
2023-03-29T03:44:49.817Z,78.65
2023-03-29T03:47:44.195Z,78.35
2023-03-29T03:50:30.507Z,76.78
2023-03-29T03:52:58.795Z,76.54
2023-03-29T03:55:30.245Z,76.51
2023-03-29T03:58:16.138Z,77.32
2023-03-29T04:00:47.656Z,76.72
2023-03-29T04:03:34.893Z,78.90
2023-03-29T04:06:04.658Z,78.29
2023-03-29T04:08:48.215Z,78.63
2023-03-29T04:11:26.746Z,80.18
2023-03-29T04:13:55.259Z,79.66
2023-03-29T04:16:31.629Z,80.71
2023-03-29T04:19:08.723Z,80.00
2023-03-29T04:21:37.416Z,79.96
2023-03-29T04:24:06.394Z,79.44
2023-03-29T04:26:36.251Z,78.58
2023-03-29T04:29:12.093Z,78.93
2023-03-29T04:31:45.756Z,79.37
2023-03-29T04:34:29.011Z,79.22
2023-03-29T04:36:59.128Z,79.77
2023-03-29T04:39:34.124Z,79.25
2023-03-29T04:42:05.630Z,79.22
2023-03-29T04:44:35.231Z,79.88
2023-03-29T04:47:05.452Z,79.65
2023-03-29T04:49:56.359Z,79.66
2023-03-29T04:52:33.524Z,79.25
2023-03-29T04:55:03.980Z,79.94
2023-03-29T04:58:01.448Z,79.74
2023-03-29T05:00:38.097Z,79.25
2023-03-29T05:03:07.808Z,78.64
2023-03-29T05:05:39.304Z,78.45
2023-03-29T05:08:09.708Z,77.62
2023-03-29T05:11:13.925Z,76.30
2023-03-29T05:13:43.335Z,75.03
2023-03-29T05:16:11.953Z,76.27
2023-03-29T05:18:40.878Z,75.86
2023-03-29T05:21:09.811Z,76.04
2023-03-29T05:23:38.530Z,77.19
2023-03-29T05:26:18.861Z,75.15
2023-03-29T05:28:51.135Z,73.55
2023-03-29T05:31:20.350Z,73.63
2023-03-29T05:33:52.113Z,74.14
2023-03-29T05:36:20.824Z,73.08
2023-03-29T05:38:52.438Z,72.95
2023-03-29T05:41:23.063Z,73.35
2023-03-29T05:44:10.186Z,72.29
2023-03-29T05:46:39.462Z,72.93
2023-03-29T05:49:07.571Z,72.66
2023-03-29T05:51:59.676Z,72.24
2023-03-29T05:54:28.643Z,73.05
2023-03-29T05:56:57.007Z,70.59
2023-03-29T05:59:28.405Z,70.39
2023-03-29T06:01:57.152Z,70.20
2023-03-29T06:04:30.987Z,69.82
2023-03-29T06:07:18.459Z,68.88
2023-03-29T06:09:59.368Z,69.92
2023-03-29T06:12:30.164Z,70.57
2023-03-29T06:15:05.111Z,67.76
2023-03-29T06:17:42.732Z,67.29
2023-03-29T06:20:12.368Z,67.35
2023-03-29T06:22:43.143Z,66.50
2023-03-29T06:25:14.232Z,65.10
2023-03-29T06:27:46.971Z,64.47
2023-03-29T06:30:17.220Z,65.69
2023-03-29T06:32:50.817Z,63.70
2023-03-29T06:35:48.051Z,63.55
2023-03-29T06:38:21.053Z,60.64
2023-03-29T06:41:08.548Z,60.11
2023-03-29T06:43:59.837Z,59.48
2023-03-29T06:46:34.193Z,59.70
2023-03-29T06:49:07.315Z,58.76
2023-03-29T06:51:43.753Z,57.16
2023-03-29T06:54:12.276Z,56.73
2023-03-29T06:56:47.534Z,55.43
2023-03-29T06:59:18.205Z,55.27
2023-03-29T07:01:59.990Z,54.60
2023-03-29T07:04:42.590Z,54.63
2023-03-29T07:07:22.203Z,53.34
2023-03-29T07:09:55.723Z,51.61
2023-03-29T07:12:44.857Z,51.89
2023-03-29T07:15:14.163Z,51.44
2023-03-29T07:18:12.840Z,51.96
2023-03-29T07:20:42.679Z,51.73
2023-03-29T07:23:11.853Z,51.57
2023-03-29T07:25:41.165Z,51.13
2023-03-29T07:28:09.625Z,48.64
2023-03-29T07:30:39.096Z,48.97
2023-03-29T07:33:22.440Z,49.71
2023-03-29T07:35:57.610Z,48.79
2023-03-29T07:38:27.443Z,48.50
2023-03-29T07:41:05.105Z,47.21
2023-03-29T07:43:48.063Z,47.68
2023-03-29T07:46:19.845Z,47.77
2023-03-29T07:48:48.244Z,47.47
2023-03-29T07:51:17.404Z,47.71
2023-03-29T07:53:57.455Z,49.39
2023-03-29T07:56:52.093Z,49.81
2023-03-29T07:59:30.290Z,49.72
2023-03-29T08:02:21.684Z,53.08
2023-03-29T08:04:57.496Z,49.64
2023-03-29T08:07:31.680Z,49.07
2023-03-29T08:10:09.357Z,49.49
2023-03-29T08:12:52.672Z,50.27
2023-03-29T08:15:27.111Z,50.36
2023-03-29T08:17:55.942Z,49.48
2023-03-29T08:20:25.931Z,47.35
2023-03-29T08:22:56.463Z,46.77
2023-03-29T08:25:52.257Z,47.53
2023-03-29T08:28:20.660Z,46.45
2023-03-29T08:30:52.996Z,45.80
2023-03-29T08:33:21.749Z,43.68
2023-03-29T08:35:57.904Z,43.19
2023-03-29T08:38:30.471Z,44.77
2023-03-29T08:40:59.263Z,43.41
2023-03-29T08:43:59.857Z,42.90
2023-03-29T08:47:39.065Z,44.86
2023-03-29T08:50:10.280Z,43.32
2023-03-29T08:52:53.116Z,43.64
2023-03-29T08:55:53.235Z,43.75
2023-03-29T08:58:42.342Z,42.84
2023-03-29T09:01:11.840Z,41.57
2023-03-29T09:03:55.805Z,42.39
2023-03-29T09:06:33.920Z,41.19
2023-03-29T09:09:19.480Z,40.92
2023-03-29T09:11:51.617Z,39.32
2023-03-29T09:14:31.077Z,39.43
2023-03-29T09:17:10.135Z,38.06
2023-03-29T09:19:47.329Z,39.38
2023-03-29T09:22:42.179Z,38.93
2023-03-29T09:25:25.027Z,38.47
2023-03-29T09:28:18.562Z,36.98
2023-03-29T09:31:06.439Z,37.08
2023-03-29T09:33:46.958Z,34.03
2023-03-29T09:36:30.227Z,34.14
2023-03-29T09:38:59.091Z,35.01
2023-03-29T09:41:36.484Z,35.69
2023-03-29T09:44:31.360Z,36.96
2023-03-29T09:47:18.698Z,37.55
2023-03-29T09:49:52.100Z,36.85
2023-03-29T09:52:21.298Z,36.81
2023-03-29T09:55:01.371Z,36.97
2023-03-29T09:57:44.076Z,38.61
2023-03-29T10:00:14.992Z,38.71
2023-03-29T10:02:51.654Z,40.87
2023-03-29T10:05:20.651Z,39.45
2023-03-29T10:07:52.998Z,39.15
2023-03-29T10:10:21.233Z,39.33
2023-03-29T10:12:57.511Z,38.21
2023-03-29T10:15:30.419Z,38.97
2023-03-29T10:18:03.278Z,38.04
2023-03-29T10:20:36.571Z,40.35
2023-03-29T10:23:08.180Z,39.40
2023-03-29T10:25:43.038Z,39.27
2023-03-29T10:28:21.264Z,39.99
2023-03-29T10:30:56.427Z,39.18
2023-03-29T10:33:31.239Z,40.26
2023-03-29T10:36:02.617Z,38.30
2023-03-29T10:38:31.144Z,37.71
2023-03-29T10:41:07.084Z,39.16
2023-03-29T10:43:38.690Z,37.79
2023-03-29T10:46:17.710Z,39.91
2023-03-29T10:48:49.161Z,38.12
2023-03-29T10:51:19.726Z,36.99
2023-03-29T10:53:48.936Z,37.54
2023-03-29T10:56:17.422Z,38.94
2023-03-29T10:58:58.475Z,39.32
2023-03-29T11:01:46.013Z,39.20
2023-03-29T11:04:29.842Z,37.11
2023-03-29T11:07:00.860Z,38.18
2023-03-29T11:09:35.549Z,38.42
2023-03-29T11:12:38.910Z,38.46
2023-03-29T11:15:41.705Z,37.64
2023-03-29T11:18:36.394Z,39.11
2023-03-29T11:21:39.882Z,41.91
2023-03-29T11:24:21.020Z,41.01
2023-03-29T11:27:08.097Z,42.43
2023-03-29T11:29:53.799Z,42.17
2023-03-29T11:32:34.395Z,42.00
2023-03-29T11:35:47.600Z,42.29
2023-03-29T11:38:50.187Z,44.01
2023-03-29T11:41:23.472Z,43.47
2023-03-29T11:44:04.954Z,44.85
2023-03-29T11:46:41.905Z,44.32
2023-03-29T11:49:27.624Z,44.52
2023-03-29T11:52:38.513Z,43.13
2023-03-29T11:55:16.372Z,43.97
2023-03-29T11:57:58.964Z,44.87
2023-03-29T12:00:58.041Z,45.07
2023-03-29T12:03:29.436Z,43.97
2023-03-29T12:06:05.029Z,44.13
2023-03-29T12:08:38.930Z,44.22
2023-03-29T12:11:15.083Z,44.63
2023-03-29T12:13:52.800Z,45.20
2023-03-29T12:16:33.496Z,42.62
2023-03-29T12:19:14.953Z,43.89
2023-03-29T12:21:46.087Z,43.00
2023-03-29T12:24:21.560Z,43.23
2023-03-29T12:26:57.909Z,43.33
2023-03-29T12:29:53.526Z,42.49
2023-03-29T12:32:37.635Z,40.72
2023-03-29T12:35:44.660Z,42.81
2023-03-29T12:38:33.322Z,44.74
2023-03-29T12:41:23.730Z,45.67
2023-03-29T12:44:16.910Z,45.85
2023-03-29T12:47:21.719Z,43.36
2023-03-29T12:49:58.707Z,42.66
2023-03-29T12:52:37.337Z,43.02
2023-03-29T12:55:23.693Z,42.78
2023-03-29T12:58:03.279Z,44.15
2023-03-29T13:00:33.700Z,42.19
2023-03-29T13:03:06.500Z,43.94
2023-03-29T13:05:36.925Z,43.33
2023-03-29T13:08:33.575Z,42.56
2023-03-29T13:11:02.546Z,43.67
2023-03-29T13:13:36.398Z,44.41
2023-03-29T13:16:14.194Z,44.00
2023-03-29T13:18:45.558Z,43.94
2023-03-29T13:21:16.860Z,43.00
2023-03-29T13:24:19.644Z,41.86
2023-03-29T13:26:50.807Z,41.77
2023-03-29T13:29:38.179Z,42.73
2023-03-29T13:32:38.586Z,43.13
2023-03-29T13:35:37.873Z,43.36
2023-03-29T13:38:28.845Z,41.69
2023-03-29T13:41:23.478Z,42.12
2023-03-29T13:43:54.519Z,42.02
2023-03-29T13:46:24.159Z,40.57
2023-03-29T13:49:00.153Z,40.94
2023-03-29T13:51:32.365Z,40.17
2023-03-29T13:54:15.379Z,40.57
2023-03-29T13:57:11.471Z,42.90
2023-03-29T13:59:59.619Z,43.55
2023-03-29T14:02:41.052Z,42.08
2023-03-29T14:05:16.605Z,41.17
2023-03-29T14:07:50.470Z,42.95
2023-03-29T14:10:27.510Z,42.70
2023-03-29T14:12:56.837Z,42.42
2023-03-29T14:15:36.520Z,42.93
2023-03-29T14:18:04.936Z,43.69
2023-03-29T14:20:33.735Z,44.29
2023-03-29T14:23:01.908Z,43.70
2023-03-29T14:25:30.679Z,44.08
2023-03-29T14:27:59.000Z,43.90
2023-03-29T14:30:29.430Z,43.75
2023-03-29T14:32:57.799Z,44.20
2023-03-29T14:35:32.989Z,44.40
2023-03-29T14:38:02.545Z,43.91
2023-03-29T14:40:32.707Z,44.70
2023-03-29T14:43:06.960Z,43.90
2023-03-29T14:45:36.139Z,42.65
2023-03-29T14:48:05.040Z,43.76
2023-03-29T14:50:33.832Z,44.34
2023-03-29T14:53:03.335Z,45.05
2023-03-29T14:55:32.457Z,43.19
2023-03-29T14:58:00.719Z,42.92
2023-03-29T15:00:40.228Z,42.63
2023-03-29T15:03:14.484Z,41.18
2023-03-29T15:05:48.920Z,41.45
2023-03-29T15:08:23.751Z,40.82
2023-03-29T15:10:52.304Z,40.89
2023-03-29T15:13:24.842Z,41.72
2023-03-29T15:15:57.856Z,40.46
2023-03-29T15:18:41.548Z,42.20
2023-03-29T15:21:13.782Z,42.36
2023-03-29T15:23:53.394Z,41.48
2023-03-29T15:26:32.155Z,41.33
2023-03-29T15:29:17.331Z,42.62
2023-03-29T15:31:55.461Z,41.01
2023-03-29T15:34:29.609Z,40.70
2023-03-29T15:36:58.873Z,41.18
2023-03-29T15:39:29.462Z,42.04
2023-03-29T15:41:58.520Z,41.40
2023-03-29T15:44:29.449Z,42.60
2023-03-29T15:46:58.586Z,42.63
2023-03-29T15:49:28.021Z,41.78
2023-03-29T15:51:56.866Z,42.44
2023-03-29T15:54:25.195Z,42.05
2023-03-29T15:57:01.813Z,42.59
2023-03-29T15:59:34.961Z,43.03
2023-03-29T16:02:04.491Z,42.12
2023-03-29T16:04:32.743Z,42.36
2023-03-29T16:07:01.374Z,43.04
2023-03-29T16:09:29.607Z,42.80
2023-03-29T16:12:00.653Z,43.59
2023-03-29T16:14:31.640Z,43.74
2023-03-29T16:17:01.611Z,44.13
2023-03-29T16:19:31.731Z,44.25
2023-03-29T16:22:02.465Z,44.39
2023-03-29T16:24:32.593Z,46.16
2023-03-29T16:27:02.790Z,46.43
2023-03-29T16:29:31.323Z,47.79
2023-03-29T16:32:01.015Z,48.42
2023-03-29T16:34:30.157Z,48.75
2023-03-29T16:36:58.280Z,48.89
2023-03-29T16:39:27.238Z,48.96
2023-03-29T16:41:55.450Z,49.41
2023-03-29T16:44:25.780Z,49.15
2023-03-29T16:46:54.479Z,50.04
2023-03-29T16:49:24.320Z,49.09
2023-03-29T16:51:52.604Z,48.87
2023-03-29T16:54:21.277Z,49.47
2023-03-29T16:56:49.443Z,50.05
2023-03-29T16:59:17.697Z,50.97
2023-03-29T17:01:46.585Z,51.72
2023-03-29T17:04:15.116Z,52.86
2023-03-29T17:06:43.279Z,52.85
2023-03-29T17:09:11.548Z,53.12
2023-03-29T17:11:39.694Z,53.41
2023-03-29T17:14:08.090Z,54.06
2023-03-29T17:16:36.504Z,54.06
2023-03-29T17:19:04.743Z,54.51
2023-03-29T17:21:33.325Z,54.42
2023-03-29T17:24:03.542Z,54.58
2023-03-29T17:26:31.728Z,56.42
2023-03-29T17:29:00.051Z,55.15
2023-03-29T17:31:28.300Z,55.43
2023-03-29T17:33:56.867Z,54.75
2023-03-29T17:36:25.585Z,55.52
2023-03-29T17:38:54.798Z,55.75
2023-03-29T17:41:23.240Z,57.36
2023-03-29T17:43:52.155Z,57.43
2023-03-29T17:46:23.255Z,56.78
2023-03-29T17:48:51.906Z,55.17
2023-03-29T17:51:21.244Z,55.24
2023-03-29T17:53:51.676Z,54.78
2023-03-29T17:56:21.851Z,54.33
2023-03-29T17:58:51.224Z,53.97
2023-03-29T18:01:23.046Z,53.54
2023-03-29T18:03:51.918Z,52.62
2023-03-29T18:06:21.286Z,52.76
2023-03-29T18:08:49.771Z,52.43
2023-03-29T18:11:22.980Z,52.23
2023-03-29T18:13:53.918Z,52.49
2023-03-29T18:16:24.256Z,53.49
2023-03-29T18:18:53.024Z,53.16
2023-03-29T18:21:22.320Z,54.17
2023-03-29T18:23:53.816Z,54.70
2023-03-29T18:26:23.690Z,56.91
2023-03-29T18:28:52.683Z,57.33
2023-03-29T18:31:21.553Z,56.75
2023-03-29T18:33:49.868Z,58.54
2023-03-29T18:36:19.294Z,57.45
2023-03-29T18:38:47.862Z,57.74
2023-03-29T18:41:16.331Z,58.31
2023-03-29T18:43:45.201Z,59.76
2023-03-29T18:46:13.858Z,56.60
2023-03-29T18:48:42.478Z,55.90
2023-03-29T18:51:15.284Z,57.70
2023-03-29T18:53:44.524Z,60.71
2023-03-29T18:56:12.778Z,60.57
2023-03-29T18:58:41.107Z,57.90
2023-03-29T19:01:11.190Z,64.21
2023-03-29T19:03:40.440Z,61.73
2023-03-29T19:06:09.863Z,64.35
2023-03-29T19:08:40.113Z,62.29
2023-03-29T19:11:10.552Z,63.89
2023-03-29T19:13:38.824Z,63.64
2023-03-29T19:16:07.656Z,59.86
2023-03-29T19:18:37.011Z,58.98
2023-03-29T19:21:05.305Z,62.13
2023-03-29T19:23:33.918Z,61.98
2023-03-29T19:26:05.519Z,64.01
2023-03-29T19:28:34.703Z,64.90
2023-03-29T19:31:04.341Z,66.79
2023-03-29T19:33:33.225Z,67.29
2023-03-29T19:36:04.473Z,67.61
2023-03-29T19:38:32.909Z,70.48
2023-03-29T19:41:01.231Z,68.75
2023-03-29T19:43:29.532Z,70.42
2023-03-29T19:46:08.034Z,68.06
2023-03-29T19:48:37.983Z,69.98
2023-03-29T19:51:06.866Z,65.09
2023-03-29T19:53:38.416Z,66.06
2023-03-29T19:56:11.097Z,64.04
2023-03-29T19:58:39.544Z,64.69
2023-03-29T20:01:08.042Z,65.73
2023-03-29T20:03:36.433Z,65.13
2023-03-29T20:06:05.047Z,69.60
2023-03-29T20:08:33.576Z,65.35
2023-03-29T20:11:04.214Z,63.32
2023-03-29T20:13:38.901Z,64.50
2023-03-29T20:16:10.866Z,62.55
2023-03-29T20:18:39.209Z,63.19
2023-03-29T20:21:08.875Z,64.85
2023-03-29T20:23:37.794Z,68.06
2023-03-29T20:26:07.617Z,69.26
2023-03-29T20:28:37.896Z,66.59
2023-03-29T20:31:10.834Z,66.51
2023-03-29T20:33:39.912Z,65.90
2023-03-29T20:36:11.457Z,64.93
2023-03-29T20:38:39.851Z,67.02
2023-03-29T20:41:09.574Z,65.71
2023-03-29T20:43:38.044Z,68.58
2023-03-29T20:46:14.816Z,64.81
2023-03-29T20:48:46.185Z,67.01
2023-03-29T20:51:14.784Z,70.54
2023-03-29T20:53:43.046Z,68.76
2023-03-29T20:56:13.371Z,66.05
2023-03-29T20:58:42.358Z,64.48
2023-03-29T21:01:14.345Z,66.85
2023-03-29T21:03:42.883Z,72.16
2023-03-29T21:06:14.265Z,68.88
2023-03-29T21:08:42.844Z,69.32
2023-03-29T21:11:13.251Z,67.47
2023-03-29T21:13:42.379Z,72.69
2023-03-29T21:16:11.540Z,68.96
2023-03-29T21:18:40.512Z,67.96
2023-03-29T21:21:10.999Z,64.99
2023-03-29T21:23:39.916Z,63.57
2023-03-29T21:26:09.443Z,67.96
2023-03-29T21:28:37.830Z,69.42
2023-03-29T21:31:07.480Z,66.34
2023-03-29T21:33:36.383Z,68.40
2023-03-29T21:36:05.724Z,71.25
2023-03-29T21:38:34.475Z,71.35
2023-03-29T21:41:03.633Z,67.93
2023-03-29T21:43:32.409Z,65.78
2023-03-29T21:46:01.051Z,67.53
2023-03-29T21:48:29.438Z,71.41
2023-03-29T21:50:58.233Z,74.30
2023-03-29T21:53:26.605Z,71.52
2023-03-29T21:55:54.728Z,73.75
2023-03-29T21:58:23.264Z,79.07
2023-03-29T22:00:51.623Z,75.91
2023-03-29T22:03:20.520Z,74.03
2023-03-29T22:06:03.003Z,74.76
2023-03-29T22:08:31.425Z,70.73
2023-03-29T22:11:08.250Z,69.76
2023-03-29T22:13:37.451Z,67.74
2023-03-29T22:16:06.862Z,66.44
2023-03-29T22:18:43.991Z,68.23
2023-03-29T22:21:22.633Z,72.11
2023-03-29T22:23:55.711Z,69.73
2023-03-29T22:26:27.809Z,70.08
2023-03-29T22:28:58.410Z,67.77
2023-03-29T22:31:28.039Z,71.18
2023-03-29T22:33:58.563Z,71.68
2023-03-29T22:36:29.764Z,72.96
2023-03-29T22:38:58.329Z,73.38
2023-03-29T22:41:27.823Z,73.46
2023-03-29T22:43:58.341Z,69.13
2023-03-29T22:46:27.535Z,66.94
2023-03-29T22:48:55.897Z,67.74
2023-03-29T22:51:24.176Z,68.66
2023-03-29T22:53:53.027Z,67.81
2023-03-29T22:56:22.128Z,72.28
2023-03-29T22:58:50.717Z,73.39
2023-03-29T23:01:18.876Z,71.29
2023-03-29T23:03:46.960Z,69.80
2023-03-29T23:06:15.502Z,69.84
2023-03-29T23:08:43.763Z,71.23
2023-03-29T23:11:12.474Z,75.07
2023-03-29T23:13:40.828Z,72.16
2023-03-29T23:16:08.890Z,70.99
2023-03-29T23:18:37.908Z,71.01
2023-03-29T23:21:09.215Z,67.56
2023-03-29T23:23:37.656Z,66.59
2023-03-29T23:26:11.801Z,66.35
2023-03-29T23:28:41.261Z,65.68
2023-03-29T23:31:18.986Z,69.57
2023-03-29T23:33:47.250Z,69.46
2023-03-29T23:36:17.662Z,74.22
2023-03-29T23:38:47.096Z,75.07
2023-03-29T23:41:17.888Z,71.92
2023-03-29T23:43:47.473Z,71.27
2023-03-29T23:46:19.065Z,72.95
2023-03-29T23:48:51.981Z,72.11
2023-03-29T23:51:23.378Z,73.04
2023-03-29T23:53:52.016Z,71.31
2023-03-29T23:56:21.630Z,72.66
2023-03-29T23:58:50.292Z,74.43
